Craven, South Dakota
Current Conditions -  °F | °C
As of 5:53 AM on Thursday 29 Jan 2015 (Local Time) from KABR Reporting Station
Overcast Overcast  
Wind Chill: 22°   Ceiling: 2100
Heat Index: 32°   Visibility: 10mi
Dew Point: 25°   Wind: 15mph
Humidity: 75%   Direction: 340°NNW
Pressure: 30.31"   Gusts: NA
Location:  45.4188°N, 99.0275°W
Report Text: KABR 291153Z AUTO 34013KT 10SM OVC021 00/M04 A3031 RMK AO2 PK WND 33026/1121 SLP279 T00001039 10000 21006 53024
Loading
Personal Weather Stations






























Interactive Weather Map New forecast layout! Learn more

10-Day Weather Forecast

Advertisements
Track Severe Weather on mobile